Air Navigation Services of Czech Republic  
Last data update:  07.02.2023 13:56:32 UTC česká verze
   METEO Page displayed:  07.02.2023 13:58:06 UTC  
vysvětlivky
METAR EDAC 071350Z 34004KT 290V020 5000 BR BKN005 M04/// Q1041=
METAR EDDB 071350Z AUTO VRB02KT CAVOK 02/M06 Q1042 NOSIG=
METAR EDDC 071350Z AUTO 34005KT 290V010 CAVOK 00/M05 Q1040 NOSIG=
METAR EDDE 071350Z AUTO 04004KT 010V070 CAVOK M01/M04 Q1039 NOSIG=
METAR EDDF 071350Z AUTO 04007KT 020V080 CAVOK 04/M06 Q1039 NOSIG=
METAR EDDM 071350Z AUTO 08008KT 030V100 CAVOK 01/M08 Q1036 NOSIG=
METAR EDDN 071350Z AUTO 06004KT 360V110 CAVOK 03/M09 Q1038 NOSIG=
METAR EDDP 071350Z AUTO VRB01KT 4200 BR OVC004 M04/M05 Q1041 BECMG 5000 BKN005=
METAR EDQM 071320Z VRB03KT CAVOK M01/M08 Q1037=
METAR EPBY 071330Z 22005KT 9999 OVC024 01/M04 Q1040=
METAR EPGD 071330Z 27007KT CAVOK 01/M02 Q1038=
METAR EPKK 071330Z 20007KT 4700 BR SCT015 BKN028 M03/M06 Q1039=
METAR EPKT 071330Z 35007KT 9999 -SN BKN010 M02/M05 Q1039=
METAR EPLB 071330Z 29007KT 9999 BKN016 OVC027 M01/M02 Q1037=
METAR EPLL 071330Z 28007KT 9999 BKN011 OVC026 M02/M04 Q1039=
METAR EPMO 071330Z 29008KT 260V320 9999 BKN028 00/M02 Q1039=
METAR EPPO 071330Z VRB01KT 9999 OVC023 M00/M05 Q1041=
METAR EPRZ 071330Z 31007KT 280V350 6000 -SN BKN009 M02/M04 Q1037=
METAR EPWA 071330Z 30009KT 9999 BKN030 00/M02 Q1039 NOSIG=
METAR EPWR 071330Z VRB02KT 9999 BKN026 00/M06 Q1041=
METAR LHBP 071330Z VRB02KT CAVOK 01/M09 Q1038 NOSIG=
METAR LHSM 071315Z AUTO 34006KT 310V010 CAVOK 00/M07 Q1038 NOSIG=
METAR LKBC NIL
METAR LKCS 071330Z AUTO VRB02KT CAVOK M01/M08 Q1038=
METAR LKCV 071330Z VRB02KT CAVOK M01/M06 Q1040 NOSIG RMK BLU BLU=
METAR LKKB 071330Z VRB02KT CAVOK M01/M06 Q1039 NOSIG RMK BLU BLU=
METAR LKKU 071300Z 36015KT 9999 FEW025 M01/M07 Q1038=
METAR LKKV 071330Z VRB02KT CAVOK 00/M09 Q1037=
METAR LKLN 071330Z AUTO 04003KT 330V110 CAVOK 01/M09 Q1038=
METAR LKMT 071330Z 04007KT 7000 OVC032 M03/M06 Q1039 NOSIG=
METAR LKNA 071330Z 32004KT CAVOK M01/M08 Q1037 NOSIG RMK BLU BLU=
METAR LKPD 071300Z 19003KT 160V230 CAVOK M01/M06 Q1040 NOSIG RMK BLU BLU=
METAR LKPJ 071330Z AUTO 05007KT 9999 FEW025/// M02/M07 Q1039=
METAR LKPR 071330Z 34003KT 280V060 CAVOK M01/M07 Q1039 NOSIG=
METAR LKTB 071330Z 05005KT 330V100 9999 FEW023 M00/M06 Q1039 NOSIG=
METAR LKVO 071300Z 30004KT 250V360 8000 FEW003 M01/M05 Q1040=
METAR LOWG 071350Z AUTO VRB02KT CAVOK 02/M09 Q1036 NOSIG=
METAR LOWI 071350Z 14004KT 070V200 CAVOK 04/M07 Q1033 NOSIG=
METAR LOWK 071350Z 08003KT CAVOK M01/M08 Q1035 NOSIG=
METAR LOWL 071350Z AUTO 12006KT 070V160 9999 NCD 00/M08 Q1038 NOSIG=
METAR LOWS 071350Z 02005KT CAVOK 02/M07 Q1035 NOSIG=
METAR LOWW 071350Z 34011KT CAVOK 00/M07 Q1038 NOSIG=
METAR LOXZ 071350Z VRB01KT 9999 SKC M03/M11 Q1034 NOSIG=
METAR LZIB 071330Z VRB02KT CAVOK 02/M09 Q1038 NOSIG=
METAR LZKZ 071330Z 02011KT 9999 BKN039 BKN049 00/M07 Q1037 NOSIG=
METAR LZPP 071330Z 35015KT CAVOK 01/M08 Q1037=
METAR LZTT 071330Z 06004KT 9999 FEW033 BKN050 M05/M11 Q1035 NOSIG=
METAR LZZI 071330Z 01007KT 340V050 9999 SCT030 M02/M08 Q1038=